sensor_id;sensor_type;location;lat;lon;timestamp;P1;durP1;ratioP1;P2;durP2;ratioP2
50056;SDS011;36875;49.468;11.200;2023-09-07T00:00:59;6.47;;;3.38;;
50056;SDS011;36875;49.468;11.200;2023-09-07T00:03:27;4.10;;;3.20;;
50056;SDS011;36875;49.468;11.200;2023-09-07T00:05:53;7.30;;;3.38;;
50056;SDS011;36875;49.468;11.200;2023-09-07T00:08:18;6.32;;;3.50;;
50056;SDS011;36875;49.468;11.200;2023-09-07T00:10:43;5.75;;;3.67;;
50056;SDS011;36875;49.468;11.200;2023-09-07T00:13:09;6.55;;;3.72;;
50056;SDS011;36875;49.468;11.200;2023-09-07T00:15:35;6.68;;;3.20;;
50056;SDS011;36875;49.468;11.200;2023-09-07T00:18:02;4.15;;;3.20;;
50056;SDS011;36875;49.468;11.200;2023-09-07T00:20:29;5.45;;;3.40;;
50056;SDS011;36875;49.468;11.200;2023-09-07T00:22:55;4.47;;;3.35;;
50056;SDS011;36875;49.468;11.200;2023-09-07T00:25:21;4.93;;;3.38;;
50056;SDS011;36875;49.468;11.200;2023-09-07T00:27:47;5.03;;;3.22;;
50056;SDS011;36875;49.468;11.200;2023-09-07T00:30:12;5.82;;;3.28;;
50056;SDS011;36875;49.468;11.200;2023-09-07T00:32:38;5.95;;;3.50;;
50056;SDS011;36875;49.468;11.200;2023-09-07T00:35:04;5.25;;;3.47;;
50056;SDS011;36875;49.468;11.200;2023-09-07T00:37:32;5.70;;;3.58;;
50056;SDS011;36875;49.468;11.200;2023-09-07T00:39:57;7.05;;;3.30;;
50056;SDS011;36875;49.468;11.200;2023-09-07T00:42:23;5.65;;;3.60;;
50056;SDS011;36875;49.468;11.200;2023-09-07T00:44:48;4.32;;;3.33;;
50056;SDS011;36875;49.468;11.200;2023-09-07T00:47:14;5.28;;;3.50;;
50056;SDS011;36875;49.468;11.200;2023-09-07T00:49:40;6.90;;;3.40;;
50056;SDS011;36875;49.468;11.200;2023-09-07T00:52:05;7.13;;;3.70;;
50056;SDS011;36875;49.468;11.200;2023-09-07T00:54:34;6.75;;;3.65;;
50056;SDS011;36875;49.468;11.200;2023-09-07T00:57:01;4.15;;;3.42;;
50056;SDS011;36875;49.468;11.200;2023-09-07T00:59:27;4.65;;;3.70;;
50056;SDS011;36875;49.468;11.200;2023-09-07T01:01:52;5.47;;;3.58;;
50056;SDS011;36875;49.468;11.200;2023-09-07T01:04:18;5.57;;;3.75;;
50056;SDS011;36875;49.468;11.200;2023-09-07T01:06:45;6.07;;;3.75;;
50056;SDS011;36875;49.468;11.200;2023-09-07T01:09:19;5.10;;;3.20;;
50056;SDS011;36875;49.468;11.200;2023-09-07T01:11:50;6.15;;;3.47;;
50056;SDS011;36875;49.468;11.200;2023-09-07T01:14:16;4.68;;;3.20;;
50056;SDS011;36875;49.468;11.200;2023-09-07T01:16:42;6.30;;;3.33;;
50056;SDS011;36875;49.468;11.200;2023-09-07T01:19:08;5.93;;;3.50;;
50056;SDS011;36875;49.468;11.200;2023-09-07T01:21:36;5.00;;;3.55;;
50056;SDS011;36875;49.468;11.200;2023-09-07T01:24:03;5.22;;;3.63;;
50056;SDS011;36875;49.468;11.200;2023-09-07T01:26:31;7.13;;;3.67;;
50056;SDS011;36875;49.468;11.200;2023-09-07T01:28:56;7.45;;;3.60;;
50056;SDS011;36875;49.468;11.200;2023-09-07T01:31:22;5.28;;;3.40;;
50056;SDS011;36875;49.468;11.200;2023-09-07T01:33:47;6.28;;;3.58;;
50056;SDS011;36875;49.468;11.200;2023-09-07T01:36:13;5.30;;;3.50;;
50056;SDS011;36875;49.468;11.200;2023-09-07T01:38:40;5.85;;;3.78;;
50056;SDS011;36875;49.468;11.200;2023-09-07T01:41:05;4.72;;;3.38;;
50056;SDS011;36875;49.468;11.200;2023-09-07T01:43:31;6.85;;;3.80;;
50056;SDS011;36875;49.468;11.200;2023-09-07T01:45:56;5.57;;;3.50;;
50056;SDS011;36875;49.468;11.200;2023-09-07T01:48:22;5.63;;;3.53;;
50056;SDS011;36875;49.468;11.200;2023-09-07T01:50:47;5.60;;;3.78;;
50056;SDS011;36875;49.468;11.200;2023-09-07T01:53:17;7.47;;;3.60;;
50056;SDS011;36875;49.468;11.200;2023-09-07T01:55:44;5.43;;;3.78;;
50056;SDS011;36875;49.468;11.200;2023-09-07T01:58:09;5.22;;;3.40;;
50056;SDS011;36875;49.468;11.200;2023-09-07T02:00:38;6.45;;;3.70;;
50056;SDS011;36875;49.468;11.200;2023-09-07T02:03:06;4.55;;;3.17;;
50056;SDS011;36875;49.468;11.200;2023-09-07T02:05:31;6.50;;;3.50;;
50056;SDS011;36875;49.468;11.200;2023-09-07T02:08:00;5.70;;;3.70;;
50056;SDS011;36875;49.468;11.200;2023-09-07T02:10:25;4.40;;;3.60;;
50056;SDS011;36875;49.468;11.200;2023-09-07T02:12:52;7.15;;;3.70;;
50056;SDS011;36875;49.468;11.200;2023-09-07T02:15:18;7.30;;;3.72;;
50056;SDS011;36875;49.468;11.200;2023-09-07T02:17:43;9.75;;;4.10;;
50056;SDS011;36875;49.468;11.200;2023-09-07T02:20:10;7.03;;;3.72;;
50056;SDS011;36875;49.468;11.200;2023-09-07T02:22:36;5.72;;;3.75;;
50056;SDS011;36875;49.468;11.200;2023-09-07T02:25:01;7.60;;;3.95;;
50056;SDS011;36875;49.468;11.200;2023-09-07T02:27:28;5.50;;;3.60;;
50056;SDS011;36875;49.468;11.200;2023-09-07T02:29:55;6.03;;;4.15;;
50056;SDS011;36875;49.468;11.200;2023-09-07T02:32:20;6.03;;;3.70;;
50056;SDS011;36875;49.468;11.200;2023-09-07T02:34:46;5.38;;;3.72;;
50056;SDS011;36875;49.468;11.200;2023-09-07T02:37:11;7.03;;;4.00;;
50056;SDS011;36875;49.468;11.200;2023-09-07T02:39:39;6.90;;;3.80;;
50056;SDS011;36875;49.468;11.200;2023-09-07T02:42:05;5.80;;;3.78;;
50056;SDS011;36875;49.468;11.200;2023-09-07T02:44:31;6.22;;;3.85;;
50056;SDS011;36875;49.468;11.200;2023-09-07T02:46:58;6.13;;;4.10;;
50056;SDS011;36875;49.468;11.200;2023-09-07T02:49:23;7.00;;;4.15;;
50056;SDS011;36875;49.468;11.200;2023-09-07T02:51:49;8.30;;;4.30;;
50056;SDS011;36875;49.468;11.200;2023-09-07T02:54:14;8.63;;;4.50;;
50056;SDS011;36875;49.468;11.200;2023-09-07T02:56:40;7.50;;;4.15;;
50056;SDS011;36875;49.468;11.200;2023-09-07T02:59:05;7.50;;;4.15;;
50056;SDS011;36875;49.468;11.200;2023-09-07T03:01:31;7.68;;;4.53;;
50056;SDS011;36875;49.468;11.200;2023-09-07T03:03:58;7.78;;;4.53;;
50056;SDS011;36875;49.468;11.200;2023-09-07T03:06:23;6.72;;;4.25;;
50056;SDS011;36875;49.468;11.200;2023-09-07T03:08:48;8.85;;;3.88;;
50056;SDS011;36875;49.468;11.200;2023-09-07T03:11:19;5.32;;;3.80;;
50056;SDS011;36875;49.468;11.200;2023-09-07T03:13:44;6.80;;;4.25;;
50056;SDS011;36875;49.468;11.200;2023-09-07T03:16:10;7.63;;;4.38;;
50056;SDS011;36875;49.468;11.200;2023-09-07T03:18:35;5.65;;;3.90;;
50056;SDS011;36875;49.468;11.200;2023-09-07T03:21:02;5.97;;;4.05;;
50056;SDS011;36875;49.468;11.200;2023-09-07T03:23:28;6.93;;;4.05;;
50056;SDS011;36875;49.468;11.200;2023-09-07T03:25:54;6.40;;;4.25;;
50056;SDS011;36875;49.468;11.200;2023-09-07T03:28:19;5.57;;;3.70;;
50056;SDS011;36875;49.468;11.200;2023-09-07T03:30:45;6.07;;;4.30;;
50056;SDS011;36875;49.468;11.200;2023-09-07T03:33:10;5.95;;;4.32;;
50056;SDS011;36875;49.468;11.200;2023-09-07T03:35:36;5.97;;;3.90;;
50056;SDS011;36875;49.468;11.200;2023-09-07T03:38:04;6.80;;;4.00;;
50056;SDS011;36875;49.468;11.200;2023-09-07T03:40:29;6.20;;;3.67;;
50056;SDS011;36875;49.468;11.200;2023-09-07T03:42:55;7.03;;;4.20;;
50056;SDS011;36875;49.468;11.200;2023-09-07T03:45:20;6.43;;;3.83;;
50056;SDS011;36875;49.468;11.200;2023-09-07T03:47:46;6.80;;;4.72;;
50056;SDS011;36875;49.468;11.200;2023-09-07T03:50:11;5.65;;;3.67;;
50056;SDS011;36875;49.468;11.200;2023-09-07T03:52:37;5.72;;;3.90;;
50056;SDS011;36875;49.468;11.200;2023-09-07T03:55:04;6.07;;;3.80;;
50056;SDS011;36875;49.468;11.200;2023-09-07T03:57:30;7.53;;;4.15;;
50056;SDS011;36875;49.468;11.200;2023-09-07T03:59:56;9.25;;;4.40;;
50056;SDS011;36875;49.468;11.200;2023-09-07T04:02:22;7.25;;;4.50;;
50056;SDS011;36875;49.468;11.200;2023-09-07T04:04:48;5.80;;;4.10;;
50056;SDS011;36875;49.468;11.200;2023-09-07T04:07:14;6.07;;;3.95;;
50056;SDS011;36875;49.468;11.200;2023-09-07T04:09:40;5.90;;;4.20;;
50056;SDS011;36875;49.468;11.200;2023-09-07T04:12:07;6.07;;;4.05;;
50056;SDS011;36875;49.468;11.200;2023-09-07T04:14:32;7.35;;;4.40;;
50056;SDS011;36875;49.468;11.200;2023-09-07T04:16:58;6.13;;;4.25;;
50056;SDS011;36875;49.468;11.200;2023-09-07T04:19:23;5.70;;;4.07;;
50056;SDS011;36875;49.468;11.200;2023-09-07T04:21:49;5.20;;;3.70;;
50056;SDS011;36875;49.468;11.200;2023-09-07T04:24:15;5.22;;;4.20;;
50056;SDS011;36875;49.468;11.200;2023-09-07T04:26:40;5.60;;;3.97;;
50056;SDS011;36875;49.468;11.200;2023-09-07T04:29:07;6.03;;;4.05;;
50056;SDS011;36875;49.468;11.200;2023-09-07T04:31:33;8.77;;;3.90;;
50056;SDS011;36875;49.468;11.200;2023-09-07T04:33:58;5.50;;;3.60;;
50056;SDS011;36875;49.468;11.200;2023-09-07T04:36:25;6.25;;;4.13;;
50056;SDS011;36875;49.468;11.200;2023-09-07T04:38:53;4.93;;;3.88;;
50056;SDS011;36875;49.468;11.200;2023-09-07T04:41:19;6.93;;;3.97;;
50056;SDS011;36875;49.468;11.200;2023-09-07T04:43:44;5.45;;;4.10;;
50056;SDS011;36875;49.468;11.200;2023-09-07T04:46:11;5.95;;;3.47;;
50056;SDS011;36875;49.468;11.200;2023-09-07T04:48:38;6.65;;;4.00;;
50056;SDS011;36875;49.468;11.200;2023-09-07T04:51:04;9.48;;;3.70;;
50056;SDS011;36875;49.468;11.200;2023-09-07T04:53:32;5.97;;;3.70;;
50056;SDS011;36875;49.468;11.200;2023-09-07T04:56:00;7.13;;;4.05;;
50056;SDS011;36875;49.468;11.200;2023-09-07T04:58:25;7.43;;;4.07;;
50056;SDS011;36875;49.468;11.200;2023-09-07T05:00:51;6.40;;;4.30;;
50056;SDS011;36875;49.468;11.200;2023-09-07T05:03:18;6.88;;;4.22;;
50056;SDS011;36875;49.468;11.200;2023-09-07T05:05:44;6.40;;;3.92;;
50056;SDS011;36875;49.468;11.200;2023-09-07T05:08:10;6.38;;;4.10;;
50056;SDS011;36875;49.468;11.200;2023-09-07T05:10:36;7.78;;;4.28;;
50056;SDS011;36875;49.468;11.200;2023-09-07T05:13:01;5.88;;;4.38;;
50056;SDS011;36875;49.468;11.200;2023-09-07T05:15:27;5.90;;;4.30;;
50056;SDS011;36875;49.468;11.200;2023-09-07T05:17:53;6.95;;;4.15;;
50056;SDS011;36875;49.468;11.200;2023-09-07T05:20:20;7.25;;;4.03;;
50056;SDS011;36875;49.468;11.200;2023-09-07T05:22:45;6.55;;;4.00;;
50056;SDS011;36875;49.468;11.200;2023-09-07T05:25:11;6.22;;;4.53;;
50056;SDS011;36875;49.468;11.200;2023-09-07T05:27:45;11.63;;;4.10;;
50056;SDS011;36875;49.468;11.200;2023-09-07T05:30:11;8.57;;;4.53;;
50056;SDS011;36875;49.468;11.200;2023-09-07T05:32:37;7.97;;;4.35;;
50056;SDS011;36875;49.468;11.200;2023-09-07T05:35:02;8.20;;;4.70;;
50056;SDS011;36875;49.468;11.200;2023-09-07T05:37:28;8.40;;;4.78;;
50056;SDS011;36875;49.468;11.200;2023-09-07T05:39:53;9.57;;;4.93;;
50056;SDS011;36875;49.468;11.200;2023-09-07T05:42:19;6.90;;;4.55;;
50056;SDS011;36875;49.468;11.200;2023-09-07T05:44:46;8.93;;;4.75;;
50056;SDS011;36875;49.468;11.200;2023-09-07T05:47:11;10.98;;;4.78;;
50056;SDS011;36875;49.468;11.200;2023-09-07T05:49:37;9.48;;;5.38;;
50056;SDS011;36875;49.468;11.200;2023-09-07T05:52:02;10.48;;;5.03;;
50056;SDS011;36875;49.468;11.200;2023-09-07T05:54:28;10.00;;;4.90;;
50056;SDS011;36875;49.468;11.200;2023-09-07T05:56:54;7.80;;;4.47;;
50056;SDS011;36875;49.468;11.200;2023-09-07T05:59:19;8.77;;;4.50;;
50056;SDS011;36875;49.468;11.200;2023-09-07T06:01:46;10.85;;;5.10;;
50056;SDS011;36875;49.468;11.200;2023-09-07T06:04:11;11.15;;;5.10;;
50056;SDS011;36875;49.468;11.200;2023-09-07T06:06:37;10.00;;;5.22;;
50056;SDS011;36875;49.468;11.200;2023-09-07T06:09:06;14.75;;;6.10;;
50056;SDS011;36875;49.468;11.200;2023-09-07T06:11:31;16.05;;;6.40;;
50056;SDS011;36875;49.468;11.200;2023-09-07T06:13:57;16.55;;;7.35;;
50056;SDS011;36875;49.468;11.200;2023-09-07T06:16:22;14.63;;;6.80;;
50056;SDS011;36875;49.468;11.200;2023-09-07T06:18:49;11.32;;;6.10;;
50056;SDS011;36875;49.468;11.200;2023-09-07T06:21:15;14.82;;;6.53;;
50056;SDS011;36875;49.468;11.200;2023-09-07T06:23:40;15.48;;;6.00;;
50056;SDS011;36875;49.468;11.200;2023-09-07T06:26:06;15.88;;;5.97;;
50056;SDS011;36875;49.468;11.200;2023-09-07T06:28:31;13.25;;;6.40;;
50056;SDS011;36875;49.468;11.200;2023-09-07T06:30:57;12.40;;;5.88;;
50056;SDS011;36875;49.468;11.200;2023-09-07T06:33:22;14.27;;;6.25;;
50056;SDS011;36875;49.468;11.200;2023-09-07T06:35:49;12.43;;;6.18;;
50056;SDS011;36875;49.468;11.200;2023-09-07T06:38:14;13.30;;;5.50;;
50056;SDS011;36875;49.468;11.200;2023-09-07T06:40:40;10.27;;;5.50;;
50056;SDS011;36875;49.468;11.200;2023-09-07T06:43:05;13.90;;;6.10;;
50056;SDS011;36875;49.468;11.200;2023-09-07T06:45:33;14.90;;;5.85;;
50056;SDS011;36875;49.468;11.200;2023-09-07T06:47:59;12.20;;;6.20;;
50056;SDS011;36875;49.468;11.200;2023-09-07T06:50:24;13.15;;;5.82;;
50056;SDS011;36875;49.468;11.200;2023-09-07T06:52:51;11.60;;;6.15;;
50056;SDS011;36875;49.468;11.200;2023-09-07T06:55:17;10.95;;;6.15;;
50056;SDS011;36875;49.468;11.200;2023-09-07T06:57:42;12.50;;;5.85;;
50056;SDS011;36875;49.468;11.200;2023-09-07T07:00:08;14.07;;;6.28;;
50056;SDS011;36875;49.468;11.200;2023-09-07T07:02:35;12.40;;;5.78;;
50056;SDS011;36875;49.468;11.200;2023-09-07T07:05:01;11.65;;;5.53;;
50056;SDS011;36875;49.468;11.200;2023-09-07T07:07:28;10.75;;;5.55;;
50056;SDS011;36875;49.468;11.200;2023-09-07T07:09:55;10.35;;;5.70;;
50056;SDS011;36875;49.468;11.200;2023-09-07T07:12:21;11.95;;;5.82;;
50056;SDS011;36875;49.468;11.200;2023-09-07T07:14:46;13.35;;;5.97;;
50056;SDS011;36875;49.468;11.200;2023-09-07T07:17:12;11.43;;;5.90;;
50056;SDS011;36875;49.468;11.200;2023-09-07T07:19:37;10.15;;;5.25;;
50056;SDS011;36875;49.468;11.200;2023-09-07T07:22:03;11.57;;;5.30;;
50056;SDS011;36875;49.468;11.200;2023-09-07T07:24:29;10.65;;;5.47;;
50056;SDS011;36875;49.468;11.200;2023-09-07T07:26:55;11.13;;;5.57;;
50056;SDS011;36875;49.468;11.200;2023-09-07T07:29:21;8.60;;;5.50;;
50056;SDS011;36875;49.468;11.200;2023-09-07T07:31:46;10.07;;;5.07;;
50056;SDS011;36875;49.468;11.200;2023-09-07T07:34:12;11.93;;;5.78;;
50056;SDS011;36875;49.468;11.200;2023-09-07T07:36:38;11.23;;;5.43;;
50056;SDS011;36875;49.468;11.200;2023-09-07T07:39:04;8.65;;;5.28;;
50056;SDS011;36875;49.468;11.200;2023-09-07T07:41:31;10.38;;;5.30;;
50056;SDS011;36875;49.468;11.200;2023-09-07T07:43:58;8.77;;;5.93;;
50056;SDS011;36875;49.468;11.200;2023-09-07T07:46:24;8.90;;;5.68;;
50056;SDS011;36875;49.468;11.200;2023-09-07T07:48:49;7.68;;;5.15;;
50056;SDS011;36875;49.468;11.200;2023-09-07T07:51:15;9.32;;;5.10;;
50056;SDS011;36875;49.468;11.200;2023-09-07T07:53:40;11.90;;;5.30;;
50056;SDS011;36875;49.468;11.200;2023-09-07T07:56:13;8.13;;;5.25;;
50056;SDS011;36875;49.468;11.200;2023-09-07T07:58:39;8.38;;;4.85;;
50056;SDS011;36875;49.468;11.200;2023-09-07T08:01:14;8.43;;;4.97;;
50056;SDS011;36875;49.468;11.200;2023-09-07T08:03:40;8.82;;;5.03;;
50056;SDS011;36875;49.468;11.200;2023-09-07T08:06:05;10.90;;;4.97;;
50056;SDS011;36875;49.468;11.200;2023-09-07T08:08:31;9.23;;;4.97;;
50056;SDS011;36875;49.468;11.200;2023-09-07T08:10:56;9.63;;;5.30;;
50056;SDS011;36875;49.468;11.200;2023-09-07T08:13:23;9.13;;;4.93;;
50056;SDS011;36875;49.468;11.200;2023-09-07T08:15:49;11.43;;;5.30;;
50056;SDS011;36875;49.468;11.200;2023-09-07T08:18:16;10.27;;;5.20;;
50056;SDS011;36875;49.468;11.200;2023-09-07T08:20:41;9.13;;;5.25;;
50056;SDS011;36875;49.468;11.200;2023-09-07T08:23:07;11.13;;;5.25;;
50056;SDS011;36875;49.468;11.200;2023-09-07T08:25:34;10.05;;;5.03;;
50056;SDS011;36875;49.468;11.200;2023-09-07T08:28:00;9.18;;;4.78;;
50056;SDS011;36875;49.468;11.200;2023-09-07T08:30:30;8.70;;;4.80;;
50056;SDS011;36875;49.468;11.200;2023-09-07T08:32:55;7.75;;;4.65;;
50056;SDS011;36875;49.468;11.200;2023-09-07T08:35:22;8.45;;;4.95;;
50056;SDS011;36875;49.468;11.200;2023-09-07T08:40:17;9.07;;;5.13;;
50056;SDS011;36875;49.468;11.200;2023-09-07T08:42:44;9.27;;;4.85;;
50056;SDS011;36875;49.468;11.200;2023-09-07T08:45:09;7.35;;;4.53;;
50056;SDS011;36875;49.468;11.200;2023-09-07T08:47:40;9.15;;;4.68;;
50056;SDS011;36875;49.468;11.200;2023-09-07T08:50:07;8.82;;;4.85;;
50056;SDS011;36875;49.468;11.200;2023-09-07T08:52:35;8.80;;;5.22;;
50056;SDS011;36875;49.468;11.200;2023-09-07T08:55:01;8.70;;;5.25;;
50056;SDS011;36875;49.468;11.200;2023-09-07T08:57:30;8.13;;;4.65;;
50056;SDS011;36875;49.468;11.200;2023-09-07T08:59:56;8.05;;;4.53;;
50056;SDS011;36875;49.468;11.200;2023-09-07T09:02:22;7.88;;;4.40;;
50056;SDS011;36875;49.468;11.200;2023-09-07T09:04:47;9.63;;;5.07;;
50056;SDS011;36875;49.468;11.200;2023-09-07T09:07:13;8.85;;;5.00;;
50056;SDS011;36875;49.468;11.200;2023-09-07T09:09:40;8.07;;;4.50;;
50056;SDS011;36875;49.468;11.200;2023-09-07T09:12:06;7.60;;;4.70;;
50056;SDS011;36875;49.468;11.200;2023-09-07T09:14:33;9.05;;;4.75;;
50056;SDS011;36875;49.468;11.200;2023-09-07T09:16:58;7.40;;;4.65;;
50056;SDS011;36875;49.468;11.200;2023-09-07T09:19:29;7.10;;;4.57;;
50056;SDS011;36875;49.468;11.200;2023-09-07T09:21:55;7.80;;;5.13;;
50056;SDS011;36875;49.468;11.200;2023-09-07T09:24:21;7.80;;;4.70;;
50056;SDS011;36875;49.468;11.200;2023-09-07T09:26:49;7.60;;;4.93;;
50056;SDS011;36875;49.468;11.200;2023-09-07T09:29:15;7.75;;;4.82;;
50056;SDS011;36875;49.468;11.200;2023-09-07T10:06:49;6.65;;;4.45;;
50056;SDS011;36875;49.468;11.200;2023-09-07T10:09:15;7.13;;;4.55;;
50056;SDS011;36875;49.468;11.200;2023-09-07T10:22:05;6.82;;;4.28;;
50056;SDS011;36875;49.468;11.200;2023-09-07T10:24:31;6.25;;;4.40;;
50056;SDS011;36875;49.468;11.200;2023-09-07T10:27:05;6.72;;;4.32;;
50056;SDS011;36875;49.468;11.200;2023-09-07T10:29:40;6.35;;;4.25;;
50056;SDS011;36875;49.468;11.200;2023-09-07T10:37:17;6.32;;;4.43;;
50056;SDS011;36875;49.468;11.200;2023-09-07T10:39:45;7.65;;;4.30;;
50056;SDS011;36875;49.468;11.200;2023-09-07T10:49:56;6.13;;;4.00;;
50056;SDS011;36875;49.468;11.200;2023-09-07T10:57:34;6.55;;;4.18;;
50056;SDS011;36875;49.468;11.200;2023-09-07T11:00:07;5.90;;;3.70;;
50056;SDS011;36875;49.468;11.200;2023-09-07T11:10:21;5.72;;;3.78;;
50056;SDS011;36875;49.468;11.200;2023-09-07T11:15:23;6.18;;;3.95;;
50056;SDS011;36875;49.468;11.200;2023-09-07T11:17:48;7.20;;;4.10;;
50056;SDS011;36875;49.468;11.200;2023-09-07T11:20:15;6.43;;;3.90;;
50056;SDS011;36875;49.468;11.200;2023-09-07T11:22:40;5.50;;;4.00;;
50056;SDS011;36875;49.468;11.200;2023-09-07T11:25:07;5.40;;;4.10;;
50056;SDS011;36875;49.468;11.200;2023-09-07T11:27:33;5.88;;;4.30;;
50056;SDS011;36875;49.468;11.200;2023-09-07T11:30:00;6.45;;;4.68;;
50056;SDS011;36875;49.468;11.200;2023-09-07T11:32:34;7.10;;;4.18;;
50056;SDS011;36875;49.468;11.200;2023-09-07T11:34:59;6.03;;;4.40;;
50056;SDS011;36875;49.468;11.200;2023-09-07T11:37:25;6.40;;;4.20;;
50056;SDS011;36875;49.468;11.200;2023-09-07T11:39:51;6.45;;;4.30;;
50056;SDS011;36875;49.468;11.200;2023-09-07T11:50:04;6.63;;;3.97;;
50056;SDS011;36875;49.468;11.200;2023-09-07T11:57:42;5.28;;;4.00;;
50056;SDS011;36875;49.468;11.200;2023-09-07T12:00:08;6.07;;;4.13;;
50056;SDS011;36875;49.468;11.200;2023-09-07T12:07:48;5.10;;;3.90;;
50056;SDS011;36875;49.468;11.200;2023-09-07T12:10:14;6.75;;;4.05;;
50056;SDS011;36875;49.468;11.200;2023-09-07T12:12:40;6.95;;;4.10;;
50056;SDS011;36875;49.468;11.200;2023-09-07T12:15:06;6.32;;;3.90;;
50056;SDS011;36875;49.468;11.200;2023-09-07T12:17:32;5.38;;;3.78;;
50056;SDS011;36875;49.468;11.200;2023-09-07T12:19:58;5.40;;;3.67;;
50056;SDS011;36875;49.468;11.200;2023-09-07T12:27:36;5.88;;;3.78;;
50056;SDS011;36875;49.468;11.200;2023-09-07T12:30:02;5.60;;;3.60;;
50056;SDS011;36875;49.468;11.200;2023-09-07T12:32:31;5.20;;;3.78;;
50056;SDS011;36875;49.468;11.200;2023-09-07T12:34:56;5.72;;;3.80;;
50056;SDS011;36875;49.468;11.200;2023-09-07T12:37:22;5.40;;;3.85;;
50056;SDS011;36875;49.468;11.200;2023-09-07T12:39:48;6.13;;;4.05;;
50056;SDS011;36875;49.468;11.200;2023-09-07T12:42:14;5.85;;;3.60;;
50056;SDS011;36875;49.468;11.200;2023-09-07T12:44:41;5.70;;;3.78;;
50056;SDS011;36875;49.468;11.200;2023-09-07T12:47:06;6.85;;;3.63;;
50056;SDS011;36875;49.468;11.200;2023-09-07T12:49:32;8.38;;;3.80;;
50056;SDS011;36875;49.468;11.200;2023-09-07T12:51:57;5.75;;;3.80;;
50056;SDS011;36875;49.468;11.200;2023-09-07T12:54:23;4.75;;;3.72;;
50056;SDS011;36875;49.468;11.200;2023-09-07T12:56:48;8.02;;;3.90;;
50056;SDS011;36875;49.468;11.200;2023-09-07T12:59:14;6.60;;;3.78;;
50056;SDS011;36875;49.468;11.200;2023-09-07T13:01:41;4.97;;;3.63;;
50056;SDS011;36875;49.468;11.200;2023-09-07T13:04:07;9.77;;;4.13;;
50056;SDS011;36875;49.468;11.200;2023-09-07T13:06:32;7.00;;;3.47;;
50056;SDS011;36875;49.468;11.200;2023-09-07T13:08:58;5.50;;;3.70;;
50056;SDS011;36875;49.468;11.200;2023-09-07T13:11:23;7.65;;;4.10;;
50056;SDS011;36875;49.468;11.200;2023-09-07T13:13:49;5.28;;;3.72;;
50056;SDS011;36875;49.468;11.200;2023-09-07T13:16:15;5.40;;;3.88;;
50056;SDS011;36875;49.468;11.200;2023-09-07T13:18:42;5.57;;;3.70;;
50056;SDS011;36875;49.468;11.200;2023-09-07T13:21:07;5.07;;;3.47;;
50056;SDS011;36875;49.468;11.200;2023-09-07T13:23:33;6.45;;;3.85;;
50056;SDS011;36875;49.468;11.200;2023-09-07T13:25:58;5.90;;;3.80;;
50056;SDS011;36875;49.468;11.200;2023-09-07T13:28:26;6.57;;;3.70;;
50056;SDS011;36875;49.468;11.200;2023-09-07T13:30:51;6.35;;;3.88;;
50056;SDS011;36875;49.468;11.200;2023-09-07T13:33:17;4.75;;;3.40;;
50056;SDS011;36875;49.468;11.200;2023-09-07T13:35:43;6.45;;;3.40;;
50056;SDS011;36875;49.468;11.200;2023-09-07T13:38:10;4.82;;;3.47;;
50056;SDS011;36875;49.468;11.200;2023-09-07T13:40:35;7.18;;;4.00;;
50056;SDS011;36875;49.468;11.200;2023-09-07T13:43:01;5.50;;;3.28;;
50056;SDS011;36875;49.468;11.200;2023-09-07T13:45:26;6.63;;;4.03;;
50056;SDS011;36875;49.468;11.200;2023-09-07T13:47:54;7.53;;;3.50;;
50056;SDS011;36875;49.468;11.200;2023-09-07T13:50:19;6.20;;;3.58;;
50056;SDS011;36875;49.468;11.200;2023-09-07T13:52:47;5.25;;;3.40;;
50056;SDS011;36875;49.468;11.200;2023-09-07T13:55:12;5.47;;;3.50;;
50056;SDS011;36875;49.468;11.200;2023-09-07T13:57:38;6.80;;;3.55;;
50056;SDS011;36875;49.468;11.200;2023-09-07T14:00:04;6.10;;;3.53;;
50056;SDS011;36875;49.468;11.200;2023-09-07T14:02:31;8.07;;;3.65;;
50056;SDS011;36875;49.468;11.200;2023-09-07T14:04:57;10.85;;;3.67;;
50056;SDS011;36875;49.468;11.200;2023-09-07T14:07:23;6.68;;;3.42;;
50056;SDS011;36875;49.468;11.200;2023-09-07T14:09:52;5.20;;;3.45;;
50056;SDS011;36875;49.468;11.200;2023-09-07T14:12:17;4.90;;;3.20;;
50056;SDS011;36875;49.468;11.200;2023-09-07T14:14:43;5.05;;;3.50;;
50056;SDS011;36875;49.468;11.200;2023-09-07T14:17:08;6.05;;;3.47;;
50056;SDS011;36875;49.468;11.200;2023-09-07T14:19:33;8.40;;;3.85;;
50056;SDS011;36875;49.468;11.200;2023-09-07T14:21:59;5.82;;;3.45;;
50056;SDS011;36875;49.468;11.200;2023-09-07T14:24:25;4.75;;;3.58;;
50056;SDS011;36875;49.468;11.200;2023-09-07T14:26:51;6.95;;;3.28;;
50056;SDS011;36875;49.468;11.200;2023-09-07T14:29:17;6.60;;;3.55;;
50056;SDS011;36875;49.468;11.200;2023-09-07T14:31:43;6.35;;;3.50;;
50056;SDS011;36875;49.468;11.200;2023-09-07T14:34:09;8.13;;;3.72;;
50056;SDS011;36875;49.468;11.200;2023-09-07T14:36:34;7.75;;;3.40;;
50056;SDS011;36875;49.468;11.200;2023-09-07T14:39:00;5.18;;;3.40;;
50056;SDS011;36875;49.468;11.200;2023-09-07T14:41:26;7.22;;;3.42;;
50056;SDS011;36875;49.468;11.200;2023-09-07T14:43:54;8.45;;;3.50;;
50056;SDS011;36875;49.468;11.200;2023-09-07T14:46:20;7.20;;;3.40;;
50056;SDS011;36875;49.468;11.200;2023-09-07T14:48:47;7.10;;;3.50;;
50056;SDS011;36875;49.468;11.200;2023-09-07T14:51:14;8.45;;;3.20;;
50056;SDS011;36875;49.468;11.200;2023-09-07T14:53:39;6.15;;;3.30;;
50056;SDS011;36875;49.468;11.200;2023-09-07T14:56:05;5.32;;;3.28;;
50056;SDS011;36875;49.468;11.200;2023-09-07T14:58:30;6.07;;;3.33;;
50056;SDS011;36875;49.468;11.200;2023-09-07T15:00:57;9.32;;;3.35;;
50056;SDS011;36875;49.468;11.200;2023-09-07T15:03:23;7.80;;;3.60;;
50056;SDS011;36875;49.468;11.200;2023-09-07T15:05:48;12.65;;;3.38;;
50056;SDS011;36875;49.468;11.200;2023-09-07T15:08:14;5.40;;;3.22;;
50056;SDS011;36875;49.468;11.200;2023-09-07T15:10:40;5.28;;;3.38;;
50056;SDS011;36875;49.468;11.200;2023-09-07T15:13:05;8.02;;;3.72;;
50056;SDS011;36875;49.468;11.200;2023-09-07T15:15:32;8.48;;;3.03;;
50056;SDS011;36875;49.468;11.200;2023-09-07T15:18:03;8.40;;;3.35;;
50056;SDS011;36875;49.468;11.200;2023-09-07T15:20:28;9.55;;;3.85;;
50056;SDS011;36875;49.468;11.200;2023-09-07T15:22:54;7.43;;;3.20;;
50056;SDS011;36875;49.468;11.200;2023-09-07T15:25:20;8.93;;;3.75;;
50056;SDS011;36875;49.468;11.200;2023-09-07T15:27:45;6.20;;;3.30;;
50056;SDS011;36875;49.468;11.200;2023-09-07T15:30:11;6.40;;;3.45;;
50056;SDS011;36875;49.468;11.200;2023-09-07T15:32:37;5.10;;;3.50;;
50056;SDS011;36875;49.468;11.200;2023-09-07T15:35:04;7.00;;;3.40;;
50056;SDS011;36875;49.468;11.200;2023-09-07T15:37:30;6.13;;;3.35;;
50056;SDS011;36875;49.468;11.200;2023-09-07T15:39:56;5.72;;;3.53;;
50056;SDS011;36875;49.468;11.200;2023-09-07T15:42:21;7.38;;;3.40;;
50056;SDS011;36875;49.468;11.200;2023-09-07T15:44:47;6.68;;;3.72;;
50056;SDS011;36875;49.468;11.200;2023-09-07T15:47:13;6.35;;;3.55;;
50056;SDS011;36875;49.468;11.200;2023-09-07T15:49:39;6.72;;;3.63;;
50056;SDS011;36875;49.468;11.200;2023-09-07T15:52:07;5.78;;;3.75;;
50056;SDS011;36875;49.468;11.200;2023-09-07T15:54:33;6.00;;;3.55;;
50056;SDS011;36875;49.468;11.200;2023-09-07T15:56:58;6.18;;;3.65;;
50056;SDS011;36875;49.468;11.200;2023-09-07T15:59:24;5.57;;;3.45;;
50056;SDS011;36875;49.468;11.200;2023-09-07T16:01:50;6.55;;;3.47;;
50056;SDS011;36875;49.468;11.200;2023-09-07T16:04:15;5.45;;;3.40;;
50056;SDS011;36875;49.468;11.200;2023-09-07T16:06:41;5.70;;;3.58;;